sensor_id;sensor_type;location;lat;lon;timestamp;P1;durP1;ratioP1;P2;durP2;ratioP2
20597;SDS011;10457;48.770;11.446;2022-08-19T00:01:32;29.55;;;22.80;;
20597;SDS011;10457;48.770;11.446;2022-08-19T00:06:56;29.50;;;21.45;;
20597;SDS011;10457;48.770;11.446;2022-08-19T00:12:20;28.52;;;19.88;;
20597;SDS011;10457;48.770;11.446;2022-08-19T00:17:42;27.77;;;20.85;;
20597;SDS011;10457;48.770;11.446;2022-08-19T00:23:04;29.00;;;22.92;;
20597;SDS011;10457;48.770;11.446;2022-08-19T00:28:27;26.63;;;21.67;;
20597;SDS011;10457;48.770;11.446;2022-08-19T00:33:49;28.48;;;21.38;;
20597;SDS011;10457;48.770;11.446;2022-08-19T00:39:12;28.20;;;23.05;;
20597;SDS011;10457;48.770;11.446;2022-08-19T00:44:37;28.70;;;22.27;;
20597;SDS011;10457;48.770;11.446;2022-08-19T00:49:58;29.58;;;22.98;;
20597;SDS011;10457;48.770;11.446;2022-08-19T00:55:22;26.77;;;21.45;;
20597;SDS011;10457;48.770;11.446;2022-08-19T01:00:49;27.90;;;23.63;;
20597;SDS011;10457;48.770;11.446;2022-08-19T01:06:11;30.40;;;22.08;;
20597;SDS011;10457;48.770;11.446;2022-08-19T01:11:33;27.52;;;23.30;;
20597;SDS011;10457;48.770;11.446;2022-08-19T01:17:00;27.40;;;24.25;;
20597;SDS011;10457;48.770;11.446;2022-08-19T01:22:28;32.03;;;25.52;;
20597;SDS011;10457;48.770;11.446;2022-08-19T01:27:52;31.23;;;25.27;;
20597;SDS011;10457;48.770;11.446;2022-08-19T01:33:14;36.78;;;28.67;;
20597;SDS011;10457;48.770;11.446;2022-08-19T01:38:39;33.63;;;26.67;;
20597;SDS011;10457;48.770;11.446;2022-08-19T01:44:03;38.13;;;27.50;;
20597;SDS011;10457;48.770;11.446;2022-08-19T01:49:26;40.42;;;31.25;;
20597;SDS011;10457;48.770;11.446;2022-08-19T01:54:49;37.55;;;28.95;;
20597;SDS011;10457;48.770;11.446;2022-08-19T02:00:11;36.13;;;26.75;;
20597;SDS011;10457;48.770;11.446;2022-08-19T02:05:36;40.55;;;28.48;;
20597;SDS011;10457;48.770;11.446;2022-08-19T02:11:00;37.20;;;28.90;;
20597;SDS011;10457;48.770;11.446;2022-08-19T02:16:21;40.83;;;28.38;;
20597;SDS011;10457;48.770;11.446;2022-08-19T02:21:43;39.90;;;27.83;;
20597;SDS011;10457;48.770;11.446;2022-08-19T02:27:06;43.10;;;29.48;;
20597;SDS011;10457;48.770;11.446;2022-08-19T02:32:28;41.45;;;30.13;;
20597;SDS011;10457;48.770;11.446;2022-08-19T02:37:50;45.65;;;32.08;;
20597;SDS011;10457;48.770;11.446;2022-08-19T02:43:30;45.00;;;30.45;;
20597;SDS011;10457;48.770;11.446;2022-08-19T02:48:54;44.78;;;32.15;;
20597;SDS011;10457;48.770;11.446;2022-08-19T02:54:20;41.72;;;29.75;;
20597;SDS011;10457;48.770;11.446;2022-08-19T02:59:43;47.50;;;33.75;;
20597;SDS011;10457;48.770;11.446;2022-08-19T03:05:05;40.38;;;30.70;;
20597;SDS011;10457;48.770;11.446;2022-08-19T03:10:29;41.55;;;30.38;;
20597;SDS011;10457;48.770;11.446;2022-08-19T03:15:51;41.15;;;29.73;;
20597;SDS011;10457;48.770;11.446;2022-08-19T03:21:14;45.78;;;30.98;;
20597;SDS011;10457;48.770;11.446;2022-08-19T03:26:38;37.88;;;27.92;;
20597;SDS011;10457;48.770;11.446;2022-08-19T03:32:04;48.05;;;33.20;;
20597;SDS011;10457;48.770;11.446;2022-08-19T03:37:27;46.85;;;32.92;;
20597;SDS011;10457;48.770;11.446;2022-08-19T03:42:48;43.08;;;29.90;;
20597;SDS011;10457;48.770;11.446;2022-08-19T03:48:11;44.95;;;32.10;;
20597;SDS011;10457;48.770;11.446;2022-08-19T03:53:34;44.53;;;30.48;;
20597;SDS011;10457;48.770;11.446;2022-08-19T03:58:56;39.78;;;27.35;;
20597;SDS011;10457;48.770;11.446;2022-08-19T04:04:20;45.83;;;31.58;;
20597;SDS011;10457;48.770;11.446;2022-08-19T04:09:42;41.28;;;29.42;;
20597;SDS011;10457;48.770;11.446;2022-08-19T04:15:03;43.03;;;30.17;;
20597;SDS011;10457;48.770;11.446;2022-08-19T04:20:28;41.65;;;29.40;;
20597;SDS011;10457;48.770;11.446;2022-08-19T04:25:51;45.88;;;32.50;;
20597;SDS011;10457;48.770;11.446;2022-08-19T04:31:12;40.55;;;29.55;;
20597;SDS011;10457;48.770;11.446;2022-08-19T04:36:37;44.05;;;29.08;;
20597;SDS011;10457;48.770;11.446;2022-08-19T04:42:00;44.83;;;30.25;;
20597;SDS011;10457;48.770;11.446;2022-08-19T04:47:41;42.85;;;30.38;;
20597;SDS011;10457;48.770;11.446;2022-08-19T04:53:05;39.72;;;28.92;;
20597;SDS011;10457;48.770;11.446;2022-08-19T04:58:27;39.63;;;27.23;;
20597;SDS011;10457;48.770;11.446;2022-08-19T05:03:49;39.15;;;28.08;;
20597;SDS011;10457;48.770;11.446;2022-08-19T05:09:12;41.88;;;29.88;;
20597;SDS011;10457;48.770;11.446;2022-08-19T05:14:34;43.78;;;29.27;;
20597;SDS011;10457;48.770;11.446;2022-08-19T05:19:56;42.53;;;29.48;;
20597;SDS011;10457;48.770;11.446;2022-08-19T05:25:38;38.70;;;28.27;;
20597;SDS011;10457;48.770;11.446;2022-08-19T05:31:01;42.55;;;30.02;;
20597;SDS011;10457;48.770;11.446;2022-08-19T05:36:22;37.50;;;27.35;;
20597;SDS011;10457;48.770;11.446;2022-08-19T05:41:46;35.95;;;27.27;;
20597;SDS011;10457;48.770;11.446;2022-08-19T05:47:12;35.30;;;27.00;;
20597;SDS011;10457;48.770;11.446;2022-08-19T05:52:36;36.35;;;28.10;;
20597;SDS011;10457;48.770;11.446;2022-08-19T05:57:59;37.63;;;28.42;;
20597;SDS011;10457;48.770;11.446;2022-08-19T06:03:21;46.20;;;30.17;;
20597;SDS011;10457;48.770;11.446;2022-08-19T06:08:43;41.97;;;28.88;;
20597;SDS011;10457;48.770;11.446;2022-08-19T06:14:12;40.78;;;28.52;;
20597;SDS011;10457;48.770;11.446;2022-08-19T06:19:37;40.90;;;29.17;;
20597;SDS011;10457;48.770;11.446;2022-08-19T06:25:00;41.58;;;28.40;;
20597;SDS011;10457;48.770;11.446;2022-08-19T06:30:25;37.58;;;28.40;;
20597;SDS011;10457;48.770;11.446;2022-08-19T06:35:47;37.58;;;26.75;;
20597;SDS011;10457;48.770;11.446;2022-08-19T06:41:09;34.47;;;27.23;;
20597;SDS011;10457;48.770;11.446;2022-08-19T06:46:32;35.47;;;28.00;;
20597;SDS011;10457;48.770;11.446;2022-08-19T06:51:53;37.92;;;28.35;;
20597;SDS011;10457;48.770;11.446;2022-08-19T06:57:15;38.90;;;29.20;;
20597;SDS011;10457;48.770;11.446;2022-08-19T07:02:38;39.08;;;29.13;;
20597;SDS011;10457;48.770;11.446;2022-08-19T07:08:01;40.17;;;29.35;;
20597;SDS011;10457;48.770;11.446;2022-08-19T07:13:24;37.03;;;29.02;;
20597;SDS011;10457;48.770;11.446;2022-08-19T07:18:48;41.95;;;30.80;;
20597;SDS011;10457;48.770;11.446;2022-08-19T07:24:11;37.65;;;29.83;;
20597;SDS011;10457;48.770;11.446;2022-08-19T07:29:33;39.47;;;30.73;;
20597;SDS011;10457;48.770;11.446;2022-08-19T07:34:58;39.60;;;30.48;;
20597;SDS011;10457;48.770;11.446;2022-08-19T07:40:22;42.28;;;30.63;;
20597;SDS011;10457;48.770;11.446;2022-08-19T07:45:44;40.10;;;29.27;;
20597;SDS011;10457;48.770;11.446;2022-08-19T07:51:09;46.38;;;32.78;;
20597;SDS011;10457;48.770;11.446;2022-08-19T07:56:31;44.60;;;32.80;;
20597;SDS011;10457;48.770;11.446;2022-08-19T08:01:53;46.97;;;34.83;;
20597;SDS011;10457;48.770;11.446;2022-08-19T08:07:16;49.88;;;35.00;;
20597;SDS011;10457;48.770;11.446;2022-08-19T08:12:55;47.50;;;33.97;;
20597;SDS011;10457;48.770;11.446;2022-08-19T08:18:17;45.42;;;32.47;;
20597;SDS011;10457;48.770;11.446;2022-08-19T08:23:41;45.08;;;32.00;;
20597;SDS011;10457;48.770;11.446;2022-08-19T08:29:03;44.75;;;31.23;;
20597;SDS011;10457;48.770;11.446;2022-08-19T08:34:26;38.05;;;27.50;;
20597;SDS011;10457;48.770;11.446;2022-08-19T08:39:50;39.60;;;24.77;;
20597;SDS011;10457;48.770;11.446;2022-08-19T08:45:12;31.40;;;23.60;;
20597;SDS011;10457;48.770;11.446;2022-08-19T08:50:38;32.47;;;25.27;;
20597;SDS011;10457;48.770;11.446;2022-08-19T08:56:06;30.13;;;22.25;;
20597;SDS011;10457;48.770;11.446;2022-08-19T09:01:31;32.17;;;25.05;;
20597;SDS011;10457;48.770;11.446;2022-08-19T09:06:55;30.33;;;22.92;;
20597;SDS011;10457;48.770;11.446;2022-08-19T09:12:31;32.58;;;23.65;;
20597;SDS011;10457;48.770;11.446;2022-08-19T09:18:01;28.70;;;22.15;;
20597;SDS011;10457;48.770;11.446;2022-08-19T09:23:23;31.67;;;22.48;;
20597;SDS011;10457;48.770;11.446;2022-08-19T09:28:47;25.30;;;21.65;;
20597;SDS011;10457;48.770;11.446;2022-08-19T09:34:10;24.88;;;20.08;;
20597;SDS011;10457;48.770;11.446;2022-08-19T09:39:31;24.42;;;20.70;;
20597;SDS011;10457;48.770;11.446;2022-08-19T09:44:55;20.48;;;17.33;;
20597;SDS011;10457;48.770;11.446;2022-08-19T09:50:16;26.45;;;20.65;;
20597;SDS011;10457;48.770;11.446;2022-08-19T09:55:41;35.00;;;24.35;;
20597;SDS011;10457;48.770;11.446;2022-08-19T10:01:05;36.15;;;25.10;;
20597;SDS011;10457;48.770;11.446;2022-08-19T10:06:28;32.88;;;24.63;;
20597;SDS011;10457;48.770;11.446;2022-08-19T10:11:53;37.17;;;24.88;;
20597;SDS011;10457;48.770;11.446;2022-08-19T10:17:16;35.30;;;23.42;;
20597;SDS011;10457;48.770;11.446;2022-08-19T10:22:38;32.42;;;24.23;;
20597;SDS011;10457;48.770;11.446;2022-08-19T10:28:00;36.40;;;26.08;;
20597;SDS011;10457;48.770;11.446;2022-08-19T10:33:24;35.53;;;26.33;;
20597;SDS011;10457;48.770;11.446;2022-08-19T10:38:48;38.13;;;27.35;;
20597;SDS011;10457;48.770;11.446;2022-08-19T10:44:12;32.40;;;24.88;;
20597;SDS011;10457;48.770;11.446;2022-08-19T10:49:37;33.83;;;24.38;;
20597;SDS011;10457;48.770;11.446;2022-08-19T10:55:19;27.13;;;22.00;;
20597;SDS011;10457;48.770;11.446;2022-08-19T11:01:16;26.08;;;20.70;;
20597;SDS011;10457;48.770;11.446;2022-08-19T11:06:39;29.17;;;22.33;;
20597;SDS011;10457;48.770;11.446;2022-08-19T11:12:02;30.73;;;23.73;;
20597;SDS011;10457;48.770;11.446;2022-08-19T11:17:24;34.67;;;23.27;;
20597;SDS011;10457;48.770;11.446;2022-08-19T11:22:47;41.72;;;24.83;;
20597;SDS011;10457;48.770;11.446;2022-08-19T11:28:09;38.13;;;25.58;;
20597;SDS011;10457;48.770;11.446;2022-08-19T11:33:31;33.50;;;24.08;;
20597;SDS011;10457;48.770;11.446;2022-08-19T11:38:54;30.83;;;20.70;;
20597;SDS011;10457;48.770;11.446;2022-08-19T11:44:16;26.08;;;18.70;;
20597;SDS011;10457;48.770;11.446;2022-08-19T11:49:38;26.80;;;17.83;;
20597;SDS011;10457;48.770;11.446;2022-08-19T11:55:01;27.48;;;19.70;;
20597;SDS011;10457;48.770;11.446;2022-08-19T12:00:23;24.67;;;16.77;;
20597;SDS011;10457;48.770;11.446;2022-08-19T12:05:44;26.00;;;19.55;;
20597;SDS011;10457;48.770;11.446;2022-08-19T12:11:08;22.45;;;17.50;;
20597;SDS011;10457;48.770;11.446;2022-08-19T12:16:31;23.33;;;17.52;;
20597;SDS011;10457;48.770;11.446;2022-08-19T12:21:53;26.90;;;19.02;;
20597;SDS011;10457;48.770;11.446;2022-08-19T12:27:22;24.60;;;19.50;;
20597;SDS011;10457;48.770;11.446;2022-08-19T12:32:43;25.67;;;19.27;;
20597;SDS011;10457;48.770;11.446;2022-08-19T12:38:05;27.80;;;19.20;;
20597;SDS011;10457;48.770;11.446;2022-08-19T12:43:28;24.20;;;18.55;;
20597;SDS011;10457;48.770;11.446;2022-08-19T12:48:49;26.70;;;20.70;;
20597;SDS011;10457;48.770;11.446;2022-08-19T12:54:12;28.45;;;20.75;;
20597;SDS011;10457;48.770;11.446;2022-08-19T12:59:35;26.73;;;19.38;;
20597;SDS011;10457;48.770;11.446;2022-08-19T13:04:58;26.70;;;20.10;;
20597;SDS011;10457;48.770;11.446;2022-08-19T13:10:20;27.10;;;19.38;;
20597;SDS011;10457;48.770;11.446;2022-08-19T13:15:43;25.42;;;18.70;;
20597;SDS011;10457;48.770;11.446;2022-08-19T13:21:05;25.58;;;18.30;;
20597;SDS011;10457;48.770;11.446;2022-08-19T13:26:31;27.50;;;17.48;;
20597;SDS011;10457;48.770;11.446;2022-08-19T13:31:54;29.70;;;19.02;;
20597;SDS011;10457;48.770;11.446;2022-08-19T13:37:32;28.55;;;18.10;;
20597;SDS011;10457;48.770;11.446;2022-08-19T13:43:03;26.73;;;18.83;;
20597;SDS011;10457;48.770;11.446;2022-08-19T13:48:27;24.65;;;18.67;;
20597;SDS011;10457;48.770;11.446;2022-08-19T13:53:50;29.58;;;19.92;;
20597;SDS011;10457;48.770;11.446;2022-08-19T13:59:12;29.33;;;21.23;;
20597;SDS011;10457;48.770;11.446;2022-08-19T14:04:35;31.35;;;21.02;;
20597;SDS011;10457;48.770;11.446;2022-08-19T14:09:57;26.50;;;19.67;;
20597;SDS011;10457;48.770;11.446;2022-08-19T14:15:19;28.85;;;21.83;;
20597;SDS011;10457;48.770;11.446;2022-08-19T14:20:43;31.17;;;21.80;;
20597;SDS011;10457;48.770;11.446;2022-08-19T14:26:06;33.45;;;21.45;;
20597;SDS011;10457;48.770;11.446;2022-08-19T14:31:33;31.83;;;20.95;;
20597;SDS011;10457;48.770;11.446;2022-08-19T14:36:56;31.33;;;23.67;;
20597;SDS011;10457;48.770;11.446;2022-08-19T14:42:18;41.28;;;26.80;;
20597;SDS011;10457;48.770;11.446;2022-08-19T14:47:40;44.40;;;30.58;;
20597;SDS011;10457;48.770;11.446;2022-08-19T14:53:03;40.83;;;29.17;;
20597;SDS011;10457;48.770;11.446;2022-08-19T14:58:27;45.95;;;29.77;;
20597;SDS011;10457;48.770;11.446;2022-08-19T15:03:50;45.60;;;30.33;;
20597;SDS011;10457;48.770;11.446;2022-08-19T15:09:14;42.58;;;29.45;;
20597;SDS011;10457;48.770;11.446;2022-08-19T15:14:36;42.83;;;29.13;;
20597;SDS011;10457;48.770;11.446;2022-08-19T15:19:57;44.88;;;30.17;;
20597;SDS011;10457;48.770;11.446;2022-08-19T15:25:22;45.63;;;30.30;;
20597;SDS011;10457;48.770;11.446;2022-08-19T15:30:43;42.65;;;28.65;;
20597;SDS011;10457;48.770;11.446;2022-08-19T15:36:05;37.00;;;27.55;;
20597;SDS011;10457;48.770;11.446;2022-08-19T15:41:29;40.45;;;28.75;;
20597;SDS011;10457;48.770;11.446;2022-08-19T15:46:51;34.00;;;24.00;;
20597;SDS011;10457;48.770;11.446;2022-08-19T15:52:13;33.85;;;24.13;;
20597;SDS011;10457;48.770;11.446;2022-08-19T15:57:36;34.72;;;23.17;;
20597;SDS011;10457;48.770;11.446;2022-08-19T16:03:15;31.20;;;21.67;;
20597;SDS011;10457;48.770;11.446;2022-08-19T16:08:54;30.02;;;21.25;;
20597;SDS011;10457;48.770;11.446;2022-08-19T16:14:19;25.92;;;20.30;;
20597;SDS011;10457;48.770;11.446;2022-08-19T16:19:41;26.50;;;19.10;;
20597;SDS011;10457;48.770;11.446;2022-08-19T16:25:03;21.40;;;16.30;;
20597;SDS011;10457;48.770;11.446;2022-08-19T16:30:28;23.00;;;15.30;;
20597;SDS011;10457;48.770;11.446;2022-08-19T16:35:49;16.23;;;12.93;;
20597;SDS011;10457;48.770;11.446;2022-08-19T16:41:11;10.43;;;8.98;;
20597;SDS011;10457;48.770;11.446;2022-08-19T16:46:34;6.38;;;5.78;;
20597;SDS011;10457;48.770;11.446;2022-08-19T16:51:57;5.05;;;4.28;;
20597;SDS011;10457;48.770;11.446;2022-08-19T16:57:21;3.42;;;3.10;;
20597;SDS011;10457;48.770;11.446;2022-08-19T17:02:44;4.55;;;2.45;;
20597;SDS011;10457;48.770;11.446;2022-08-19T17:08:06;8.38;;;3.15;;
20597;SDS011;10457;48.770;11.446;2022-08-19T17:13:28;3.05;;;2.63;;
20597;SDS011;10457;48.770;11.446;2022-08-19T17:18:51;4.38;;;2.28;;
20597;SDS011;10457;48.770;11.446;2022-08-19T17:24:14;3.65;;;3.33;;
20597;SDS011;10457;48.770;11.446;2022-08-19T17:29:35;5.75;;;4.05;;
20597;SDS011;10457;48.770;11.446;2022-08-19T17:34:58;7.25;;;5.35;;
20597;SDS011;10457;48.770;11.446;2022-08-19T17:40:22;5.35;;;4.85;;
20597;SDS011;10457;48.770;11.446;2022-08-19T17:45:44;6.85;;;5.10;;
20597;SDS011;10457;48.770;11.446;2022-08-19T17:51:13;9.27;;;6.43;;
20597;SDS011;10457;48.770;11.446;2022-08-19T17:56:36;9.43;;;7.20;;
20597;SDS011;10457;48.770;11.446;2022-08-19T18:01:58;12.98;;;9.07;;
20597;SDS011;10457;48.770;11.446;2022-08-19T18:07:21;10.52;;;8.20;;
20597;SDS011;10457;48.770;11.446;2022-08-19T18:12:42;9.93;;;8.88;;
20597;SDS011;10457;48.770;11.446;2022-08-19T18:18:04;9.52;;;8.43;;
20597;SDS011;10457;48.770;11.446;2022-08-19T18:23:27;9.35;;;8.40;;
20597;SDS011;10457;48.770;11.446;2022-08-19T18:28:50;12.65;;;9.18;;
20597;SDS011;10457;48.770;11.446;2022-08-19T18:34:12;11.40;;;8.90;;
20597;SDS011;10457;48.770;11.446;2022-08-19T18:39:35;12.35;;;8.30;;
20597;SDS011;10457;48.770;11.446;2022-08-19T18:45:14;11.55;;;8.27;;
20597;SDS011;10457;48.770;11.446;2022-08-19T18:50:54;7.20;;;5.70;;
20597;SDS011;10457;48.770;11.446;2022-08-19T18:56:18;8.20;;;6.32;;
20597;SDS011;10457;48.770;11.446;2022-08-19T19:01:43;8.77;;;7.28;;
20597;SDS011;10457;48.770;11.446;2022-08-19T19:07:09;8.27;;;6.90;;
20597;SDS011;10457;48.770;11.446;2022-08-19T19:12:34;8.35;;;6.97;;
20597;SDS011;10457;48.770;11.446;2022-08-19T19:18:00;9.25;;;7.55;;
20597;SDS011;10457;48.770;11.446;2022-08-19T19:23:22;8.43;;;6.72;;
20597;SDS011;10457;48.770;11.446;2022-08-19T19:28:45;7.40;;;6.53;;
20597;SDS011;10457;48.770;11.446;2022-08-19T19:34:07;7.32;;;6.00;;
20597;SDS011;10457;48.770;11.446;2022-08-19T19:39:29;7.70;;;6.57;;
20597;SDS011;10457;48.770;11.446;2022-08-19T19:44:53;7.70;;;5.82;;
20597;SDS011;10457;48.770;11.446;2022-08-19T19:50:16;6.55;;;5.95;;
20597;SDS011;10457;48.770;11.446;2022-08-19T19:55:38;8.48;;;6.95;;
20597;SDS011;10457;48.770;11.446;2022-08-19T20:01:02;7.05;;;6.35;;
20597;SDS011;10457;48.770;11.446;2022-08-19T20:06:26;6.40;;;5.80;;
20597;SDS011;10457;48.770;11.446;2022-08-19T20:11:49;5.60;;;4.90;;
20597;SDS011;10457;48.770;11.446;2022-08-19T20:17:14;4.97;;;4.38;;
20597;SDS011;10457;48.770;11.446;2022-08-19T20:22:39;6.57;;;5.88;;
20597;SDS011;10457;48.770;11.446;2022-08-19T20:28:02;5.40;;;4.90;;
20597;SDS011;10457;48.770;11.446;2022-08-19T20:33:25;5.93;;;5.38;;
20597;SDS011;10457;48.770;11.446;2022-08-19T20:39:52;6.78;;;5.43;;
20597;SDS011;10457;48.770;11.446;2022-08-19T20:44:42;8.80;;;5.68;;
20597;SDS011;10457;48.770;11.446;2022-08-19T20:50:04;5.82;;;5.07;;
20597;SDS011;10457;48.770;11.446;2022-08-19T20:55:28;6.68;;;6.07;;
20597;SDS011;10457;48.770;11.446;2022-08-19T21:00:51;7.55;;;6.35;;
20597;SDS011;10457;48.770;11.446;2022-08-19T21:06:18;7.35;;;6.47;;
20597;SDS011;10457;48.770;11.446;2022-08-19T21:11:40;6.82;;;5.82;;
20597;SDS011;10457;48.770;11.446;2022-08-19T21:17:03;7.18;;;5.50;;
20597;SDS011;10457;48.770;11.446;2022-08-19T21:22:25;6.95;;;6.00;;
20597;SDS011;10457;48.770;11.446;2022-08-19T21:27:47;10.70;;;7.30;;
20597;SDS011;10457;48.770;11.446;2022-08-19T21:33:10;14.52;;;9.38;;
20597;SDS011;10457;48.770;11.446;2022-08-19T21:38:32;22.08;;;11.70;;
20597;SDS011;10457;48.770;11.446;2022-08-19T21:43:53;8.32;;;7.10;;
20597;SDS011;10457;48.770;11.446;2022-08-19T21:49:16;8.70;;;6.88;;
20597;SDS011;10457;48.770;11.446;2022-08-19T21:54:37;8.93;;;7.00;;
20597;SDS011;10457;48.770;11.446;2022-08-19T21:59:59;8.45;;;7.60;;
20597;SDS011;10457;48.770;11.446;2022-08-19T22:05:26;10.70;;;7.15;;
20597;SDS011;10457;48.770;11.446;2022-08-19T22:10:50;7.93;;;6.85;;
20597;SDS011;10457;48.770;11.446;2022-08-19T22:16:11;9.18;;;8.05;;
20597;SDS011;10457;48.770;11.446;2022-08-19T22:21:35;9.13;;;7.55;;
20597;SDS011;10457;48.770;11.446;2022-08-19T22:26:56;8.60;;;7.72;;
20597;SDS011;10457;48.770;11.446;2022-08-19T22:32:20;11.57;;;7.43;;
20597;SDS011;10457;48.770;11.446;2022-08-19T22:37:42;10.32;;;8.23;;
20597;SDS011;10457;48.770;11.446;2022-08-19T22:43:05;14.05;;;10.07;;
20597;SDS011;10457;48.770;11.446;2022-08-19T22:48:30;10.00;;;8.77;;
20597;SDS011;10457;48.770;11.446;2022-08-19T22:53:53;11.80;;;9.35;;
20597;SDS011;10457;48.770;11.446;2022-08-19T22:59:15;11.13;;;9.35;;
20597;SDS011;10457;48.770;11.446;2022-08-19T23:04:37;10.63;;;9.27;;
20597;SDS011;10457;48.770;11.446;2022-08-19T23:10:00;12.32;;;9.95;;
20597;SDS011;10457;48.770;11.446;2022-08-19T23:15:23;13.50;;;9.75;;
20597;SDS011;10457;48.770;11.446;2022-08-19T23:20:47;12.02;;;9.02;;
20597;SDS011;10457;48.770;11.446;2022-08-19T23:26:13;11.63;;;10.18;;
20597;SDS011;10457;48.770;11.446;2022-08-19T23:31:35;12.05;;;9.27;;
20597;SDS011;10457;48.770;11.446;2022-08-19T23:36:56;10.40;;;8.82;;
20597;SDS011;10457;48.770;11.446;2022-08-19T23:42:19;11.73;;;8.52;;
20597;SDS011;10457;48.770;11.446;2022-08-19T23:47:41;11.35;;;9.25;;
20597;SDS011;10457;48.770;11.446;2022-08-19T23:53:03;12.48;;;9.77;;
20597;SDS011;10457;48.770;11.446;2022-08-19T23:58:26;11.70;;;10.07;;
